Time;durP1;ratioP1;P1;durP2;ratioP2;P2;SDS_P1;SDS_P2;PMS_P1;PMS_P2;Temp;Humidity;BMP_temperature;BMP_pressure;BME280_temperature;BME280_humidity;BME280_pressure;Samples;Min_cycle;Max_cycle;Signal;HPM_P1;HPM_P2
2021/07/28 00:00:18;;;;;;;10.65;7.18;;;;;;;;;;143728;605;46020;-55
2021/07/28 00:02:45;;;;;;;9.98;6.35;;;;;;;;;;143730;576;46018;-55
2021/07/28 00:05:12;;;;;;;10.40;7.10;;;;;;;;;;143732;573;46020;-54
2021/07/28 00:07:39;;;;;;;12.37;7.45;;;;;;;;;;143730;674;46021;-54
2021/07/28 00:10:07;;;;;;;10.70;6.87;;;;;;;;;;143730;614;46010;-53
2021/07/28 00:12:34;;;;;;;10.77;6.72;;;;;;;;;;143730;569;46018;-55
2021/07/28 00:15:01;;;;;;;11.65;7.07;;;;;;;;;;143729;580;47010;-53
2021/07/28 00:17:29;;;;;;;10.73;7.78;;;;;;;;;;143729;633;46023;-55
2021/07/28 00:25:25;;;;;;;;;;;;;;;;;;143735;977;46020;-55
2021/07/28 00:27:52;;;;;;;10.05;6.95;;;;;;;;;;143737;586;46020;-55
2021/07/28 00:30:19;;;;;;;12.23;7.30;;;;;;;;;;143728;580;46020;-54
2021/07/28 00:32:46;;;;;;;9.57;6.95;;;;;;;;;;143731;577;46018;-54
2021/07/28 00:35:13;;;;;;;10.82;6.70;;;;;;;;;;143732;620;46012;-54
2021/07/28 00:37:40;;;;;;;9.27;7.10;;;;;;;;;;143729;597;46022;-54
2021/07/28 00:40:08;;;;;;;8.40;6.80;;;;;;;;;;143728;602;46010;-55
2021/07/28 00:42:35;;;;;;;9.70;7.25;;;;;;;;;;143729;585;46018;-55
2021/07/28 00:45:02;;;;;;;8.68;7.00;;;;;;;;;;143732;624;46020;-54
2021/07/28 00:47:29;;;;;;;8.20;6.62;;;;;;;;;;143730;596;46020;-53
2021/07/28 00:49:56;;;;;;;8.10;5.93;;;;;;;;;;143728;627;46010;-54
2021/07/28 00:52:23;;;;;;;8.93;5.95;;;;;;;;;;143729;566;46021;-55
2021/07/28 00:54:51;;;;;;;9.07;6.30;;;;;;;;;;143732;564;46012;-54
2021/07/28 00:57:18;;;;;;;9.50;6.43;;;;;;;;;;143732;613;46020;-55
2021/07/28 00:59:45;;;;;;;10.25;7.03;;;;;;;;;;143728;597;46020;-54
2021/07/28 01:02:12;;;;;;;7.78;6.30;;;;;;;;;;143730;610;46020;-54
2021/07/28 01:04:39;;;;;;;10.43;6.18;;;;;;;;;;143731;564;46012;-55
2021/07/28 01:07:07;;;;;;;13.90;6.15;;;;;;;;;;143728;587;46022;-54
2021/07/28 01:09:34;;;;;;;9.00;5.75;;;;;;;;;;143728;639;46918;-54
2021/07/28 01:12:04;;;;;;;9.13;6.45;;;;;;;;;;143730;585;46020;-55
2021/07/28 01:14:31;;;;;;;10.50;6.82;;;;;;;;;;143733;617;46020;-54
2021/07/28 01:16:59;;;;;;;10.18;6.53;;;;;;;;;;143728;664;46023;-53
2021/07/28 01:19:30;;;;;;;10.55;6.70;;;;;;;;;;143726;598;46020;-53
2021/07/28 01:22:01;;;;;;;10.88;6.28;;;;;;;;;;143726;615;46020;-54
2021/07/28 01:24:29;;;;;;;13.75;7.12;;;;;;;;;;143732;624;45021;-55
2021/07/28 01:26:57;;;;;;;8.40;5.70;;;;;;;;;;143730;636;46020;-54
2021/07/28 01:29:24;;;;;;;11.70;6.62;;;;;;;;;;143727;628;46011;-54
2021/07/28 01:31:54;;;;;;;10.10;6.00;;;;;;;;;;143728;635;46018;-54
2021/07/28 01:34:21;;;;;;;10.73;5.65;;;;;;;;;;143731;585;46012;-54
2021/07/28 01:36:50;;;;;;;12.35;6.68;;;;;;;;;;143727;618;46021;-55
2021/07/28 01:39:17;;;;;;;9.63;5.93;;;;;;;;;;143725;610;46010;-54
2021/07/28 01:41:56;;;;;;;10.50;6.62;;;;;;;;;;143728;569;46018;-54
2021/07/28 01:44:23;;;;;;;10.90;6.37;;;;;;;;;;143731;593;46012;-53
2021/07/28 01:46:50;;;;;;;9.55;6.05;;;;;;;;;;143727;651;46023;-55
2021/07/28 01:49:18;;;;;;;16.55;6.68;;;;;;;;;;143727;649;46010;-54
2021/07/28 01:51:45;;;;;;;8.88;6.28;;;;;;;;;;143729;625;46010;-53
2021/07/28 01:54:12;;;;;;;7.12;5.53;;;;;;;;;;143731;591;46012;-55
2021/07/28 01:56:42;;;;;;;11.63;6.75;;;;;;;;;;143728;629;46020;-54
2021/07/28 01:59:11;;;;;;;21.20;7.62;;;;;;;;;;143726;566;46020;-53
2021/07/28 02:01:38;;;;;;;9.75;6.35;;;;;;;;;;143728;578;46018;-55
2021/07/28 02:04:05;;;;;;;9.15;6.03;;;;;;;;;;143729;575;46012;-54
2021/07/28 02:06:33;;;;;;;11.88;6.93;;;;;;;;;;143727;573;46022;-53
2021/07/28 02:09:00;;;;;;;14.25;6.87;;;;;;;;;;143727;586;46010;-55
2021/07/28 02:11:27;;;;;;;8.82;6.28;;;;;;;;;;143728;600;46018;-54
2021/07/28 02:13:54;;;;;;;12.75;6.87;;;;;;;;;;143731;600;45021;-53
2021/07/28 02:16:21;;;;;;;8.38;5.85;;;;;;;;;;143727;630;46023;-54
2021/07/28 02:18:48;;;;;;;14.32;7.25;;;;;;;;;;143726;583;46010;-53
2021/07/28 02:21:15;;;;;;;13.62;7.90;;;;;;;;;;143730;602;46019;-53
2021/07/28 02:23:42;;;;;;;11.00;6.20;;;;;;;;;;143730;610;46021;-54
2021/07/28 02:26:09;;;;;;;9.75;6.37;;;;;;;;;;143727;616;47020;-54
2021/07/28 02:28:36;;;;;;;8.23;6.78;;;;;;;;;;143726;614;46020;-54
2021/07/28 02:31:03;;;;;;;11.45;7.37;;;;;;;;;;143726;630;46021;-54
2021/07/28 02:33:30;;;;;;;9.20;6.53;;;;;;;;;;143730;607;46012;-55
2021/07/28 02:35:58;;;;;;;11.30;5.90;;;;;;;;;;143728;594;46021;-53
2021/07/28 02:38:25;;;;;;;11.43;6.95;;;;;;;;;;143727;588;46010;-53
2021/07/28 02:40:52;;;;;;;10.35;6.62;;;;;;;;;;143728;599;46018;-55
2021/07/28 02:43:19;;;;;;;11.05;6.40;;;;;;;;;;143730;591;46020;-54
2021/07/28 02:45:46;;;;;;;8.18;5.97;;;;;;;;;;143728;595;46020;-54
2021/07/28 02:48:13;;;;;;;11.30;5.97;;;;;;;;;;143726;602;46010;-54
2021/07/28 02:50:40;;;;;;;9.52;6.65;;;;;;;;;;143727;566;46020;-53
2021/07/28 02:53:07;;;;;;;9.05;5.82;;;;;;;;;;143730;608;46012;-54
2021/07/28 02:55:34;;;;;;;11.73;6.70;;;;;;;;;;143729;579;46020;-53
2021/07/28 02:58:01;;;;;;;14.02;7.03;;;;;;;;;;143726;597;46020;-53
2021/07/28 03:00:28;;;;;;;12.95;7.53;;;;;;;;;;143727;621;46021;-54
2021/07/28 03:02:55;;;;;;;12.68;7.07;;;;;;;;;;143730;587;46020;-54
2021/07/28 03:05:22;;;;;;;12.57;6.60;;;;;;;;;;143728;599;46010;-54
2021/07/28 03:07:49;;;;;;;15.57;7.07;;;;;;;;;;143727;656;46010;-54
2021/07/28 03:10:16;;;;;;;10.70;7.82;;;;;;;;;;143726;607;46020;-53
2021/07/28 03:12:43;;;;;;;13.75;7.60;;;;;;;;;;143731;578;46012;-54
2021/07/28 03:15:10;;;;;;;14.70;7.47;;;;;;;;;;143728;681;46021;-54
2021/07/28 03:17:37;;;;;;;16.95;8.45;;;;;;;;;;143726;582;46020;-53
2021/07/28 03:20:05;;;;;;;17.27;8.15;;;;;;;;;;143727;610;46020;-54
2021/07/28 03:22:33;;;;;;;11.57;7.68;;;;;;;;;;143728;624;46012;-54
2021/07/28 03:24:59;;;;;;;13.30;7.28;;;;;;;;;;143727;631;46022;-53
2021/07/28 03:27:27;;;;;;;11.25;6.75;;;;;;;;;;143726;567;46011;-54
2021/07/28 03:29:54;;;;;;;16.65;7.80;;;;;;;;;;143727;595;46021;-54
2021/07/28 03:32:21;;;;;;;17.08;7.47;;;;;;;;;;143729;705;46012;-53
2021/07/28 03:34:48;;;;;;;12.18;7.30;;;;;;;;;;143727;564;46020;-53
2021/07/28 03:37:18;;;;;;;10.65;7.10;;;;;;;;;;143726;570;46021;-54
2021/07/28 03:39:45;;;;;;;18.58;8.00;;;;;;;;;;143726;572;46020;-54
2021/07/28 03:42:12;;;;;;;17.05;8.00;;;;;;;;;;143729;581;46012;-54
2021/07/28 03:44:39;;;;;;;19.35;7.87;;;;;;;;;;143727;572;46023;-54
2021/07/28 03:47:06;;;;;;;11.35;6.78;;;;;;;;;;143726;569;46020;-54
2021/07/28 03:49:33;;;;;;;15.73;9.02;;;;;;;;;;143728;605;46018;-54
2021/07/28 03:52:00;;;;;;;16.65;9.25;;;;;;;;;;143731;602;46011;-54
2021/07/28 03:54:27;;;;;;;17.85;8.65;;;;;;;;;;143729;590;46020;-54
2021/07/28 03:56:54;;;;;;;23.08;8.25;;;;;;;;;;143727;581;46010;-54
2021/07/28 03:59:21;;;;;;;24.10;9.25;;;;;;;;;;143727;672;46010;-54
2021/07/28 04:01:48;;;;;;;16.67;7.87;;;;;;;;;;143730;570;46012;-53
2021/07/28 04:04:16;;;;;;;17.85;7.65;;;;;;;;;;143726;569;47020;-54
2021/07/28 04:06:43;;;;;;;15.75;7.90;;;;;;;;;;143726;581;46010;-54
2021/07/28 04:09:10;;;;;;;25.17;8.13;;;;;;;;;;143727;635;46020;-54
2021/07/28 04:11:37;;;;;;;18.50;8.40;;;;;;;;;;143731;587;46012;-54
2021/07/28 04:14:04;;;;;;;19.08;8.45;;;;;;;;;;143727;592;46022;-53
2021/07/28 04:16:31;;;;;;;29.83;9.88;;;;;;;;;;143726;596;46020;-53
2021/07/28 04:18:58;;;;;;;16.05;8.55;;;;;;;;;;143726;569;46020;-54
2021/07/28 04:21:25;;;;;;;38.85;11.30;;;;;;;;;;143732;582;45021;-54
2021/07/28 04:23:52;;;;;;;28.87;9.23;;;;;;;;;;143727;585;46020;-54
2021/07/28 04:26:19;;;;;;;25.12;9.15;;;;;;;;;;143727;572;46020;-53
2021/07/28 04:28:46;;;;;;;30.08;9.57;;;;;;;;;;143729;571;46011;-54
2021/07/28 04:31:14;;;;;;;21.80;8.25;;;;;;;;;;143730;586;46012;-53
2021/07/28 04:33:41;;;;;;;26.65;9.70;;;;;;;;;;143728;576;46020;-54
2021/07/28 04:36:08;;;;;;;24.23;8.60;;;;;;;;;;143726;588;46021;-54
2021/07/28 04:38:35;;;;;;;31.77;8.55;;;;;;;;;;143727;610;46020;-54
2021/07/28 04:41:02;;;;;;;33.60;9.73;;;;;;;;;;143730;587;46012;-53
2021/07/28 04:43:29;;;;;;;22.60;8.63;;;;;;;;;;143728;572;46021;-53
2021/07/28 04:46:03;;;;;;;30.80;9.45;;;;;;;;;;143726;597;46020;-53
2021/07/28 04:48:30;;;;;;;22.85;8.90;;;;;;;;;;143728;573;46020;-53
2021/07/28 04:50:58;;;;;;;23.60;9.57;;;;;;;;;;143729;627;46015;-53
2021/07/28 04:53:28;;;;;;;22.95;9.68;;;;;;;;;;143729;564;46020;-53
2021/07/28 04:55:57;;;;;;;21.40;8.18;;;;;;;;;;143726;564;46020;-52
2021/07/28 04:58:24;;;;;;;29.80;8.98;;;;;;;;;;143724;587;46021;-52
2021/07/28 05:00:52;;;;;;;18.42;8.80;;;;;;;;;;143730;647;46012;-52
2021/07/28 05:03:20;;;;;;;21.00;9.13;;;;;;;;;;143728;573;46020;-53
2021/07/28 05:05:47;;;;;;;20.90;8.32;;;;;;;;;;143727;587;46010;-53
2021/07/28 05:08:13;;;;;;;20.85;8.32;;;;;;;;;;143728;623;46018;-52
2021/07/28 05:10:41;;;;;;;21.62;8.02;;;;;;;;;;143731;629;46012;-52
2021/07/28 05:13:08;;;;;;;19.08;9.73;;;;;;;;;;143727;624;46022;-53
2021/07/28 05:15:35;;;;;;;23.52;9.35;;;;;;;;;;143726;603;46020;-52
2021/07/28 05:18:02;;;;;;;22.05;9.77;;;;;;;;;;143726;589;46020;-54
2021/07/28 05:20:28;;;;;;;29.95;11.95;;;;;;;;;;143731;627;46012;-53
2021/07/28 05:22:55;;;;;;;25.80;13.32;;;;;;;;;;143728;672;46014;-53
2021/07/28 05:25:22;;;;;;;27.87;11.02;;;;;;;;;;143726;572;46010;-52
2021/07/28 05:27:49;;;;;;;21.23;8.98;;;;;;;;;;143728;696;46019;-53
2021/07/28 05:30:17;;;;;;;25.35;10.45;;;;;;;;;;143730;640;46021;-53
2021/07/28 05:32:43;;;;;;;19.70;8.95;;;;;;;;;;143728;709;46020;-52
2021/07/28 05:35:11;;;;;;;21.75;9.15;;;;;;;;;;143727;590;46021;-52
2021/07/28 05:37:38;;;;;;;28.25;15.38;;;;;;;;;;143727;572;46018;-52
2021/07/28 05:40:06;;;;;;;29.52;11.35;;;;;;;;;;143729;593;46020;-53
2021/07/28 05:42:33;;;;;;;33.90;11.20;;;;;;;;;;143727;576;46021;-53
2021/07/28 05:45:01;;;;;;;29.73;12.00;;;;;;;;;;143726;602;46020;-53
2021/07/28 05:47:28;;;;;;;29.52;11.68;;;;;;;;;;143728;617;46018;-53
2021/07/28 05:49:55;;;;;;;40.38;15.98;;;;;;;;;;143730;593;46020;-53
2021/07/28 05:52:22;;;;;;;50.53;19.60;;;;;;;;;;143727;597;46023;-53
2021/07/28 05:54:49;;;;;;;31.42;16.58;;;;;;;;;;143727;576;46010;-54
2021/07/28 05:57:16;;;;;;;39.15;18.52;;;;;;;;;;143728;628;46020;-53
2021/07/28 05:59:43;;;;;;;44.53;24.08;;;;;;;;;;143730;581;46012;-54
2021/07/28 06:02:10;;;;;;;55.80;31.70;;;;;;;;;;143728;602;46020;-54
2021/07/28 06:04:37;;;;;;;61.88;38.40;;;;;;;;;;143726;601;46011;-54
2021/07/28 06:07:06;;;;;;;46.37;28.77;;;;;;;;;;143728;591;46018;-53
2021/07/28 06:09:33;;;;;;;35.45;21.08;;;;;;;;;;143730;573;46020;-52
2021/07/28 06:12:00;;;;;;;35.55;20.40;;;;;;;;;;143727;610;46022;-53
2021/07/28 06:14:27;;;;;;;35.40;18.17;;;;;;;;;;143727;594;46010;-54
2021/07/28 06:16:54;;;;;;;33.13;13.75;;;;;;;;;;143727;664;46018;-53
2021/07/28 06:19:21;;;;;;;24.27;14.73;;;;;;;;;;143731;585;46010;-53
2021/07/28 06:21:48;;;;;;;29.08;11.68;;;;;;;;;;143728;607;46021;-53
2021/07/28 06:24:15;;;;;;;21.33;10.43;;;;;;;;;;143727;591;46010;-53
2021/07/28 06:26:42;;;;;;;31.80;10.38;;;;;;;;;;143725;565;46020;-52
2021/07/28 06:29:09;;;;;;;35.15;10.32;;;;;;;;;;143731;592;46010;-53
2021/07/28 06:31:36;;;;;;;24.65;8.50;;;;;;;;;;143727;658;46020;-54
2021/07/28 06:34:03;;;;;;;21.50;9.40;;;;;;;;;;143727;617;46011;-54
2021/07/28 06:36:30;;;;;;;20.33;8.20;;;;;;;;;;143725;570;46021;-52
2021/07/28 06:38:57;;;;;;;12.82;8.13;;;;;;;;;;143729;734;46020;-53
2021/07/28 06:41:24;;;;;;;16.65;8.13;;;;;;;;;;143728;638;46021;-53
2021/07/28 06:43:51;;;;;;;20.50;8.68;;;;;;;;;;143727;676;46010;-53
2021/07/28 06:46:18;;;;;;;31.40;11.07;;;;;;;;;;143726;627;46020;-53
2021/07/28 06:48:45;;;;;;;21.62;9.18;;;;;;;;;;143730;639;46013;-53
2021/07/28 06:51:12;;;;;;;19.58;8.30;;;;;;;;;;143728;571;46021;-53
2021/07/28 06:53:39;;;;;;;14.90;7.70;;;;;;;;;;143727;627;46010;-54
2021/07/28 06:56:06;;;;;;;16.95;7.85;;;;;;;;;;143729;667;46019;-53
2021/07/28 06:58:33;;;;;;;19.95;8.73;;;;;;;;;;143731;580;46012;-54
2021/07/28 07:01:00;;;;;;;16.02;8.05;;;;;;;;;;143729;613;46020;-53
2021/07/28 07:03:27;;;;;;;16.55;6.30;;;;;;;;;;143726;645;46010;-54
2021/07/28 07:05:54;;;;;;;18.98;7.18;;;;;;;;;;143726;591;46021;-53
2021/07/28 07:08:21;;;;;;;18.15;6.80;;;;;;;;;;143730;622;46012;-54
2021/07/28 07:10:48;;;;;;;14.57;7.93;;;;;;;;;;143730;576;46034;-53
2021/07/28 07:13:15;;;;;;;15.93;7.87;;;;;;;;;;143727;633;46021;-53
2021/07/28 07:15:42;;;;;;;13.88;7.80;;;;;;;;;;143727;582;46020;-53
2021/07/28 07:18:09;;;;;;;15.38;7.97;;;;;;;;;;143730;622;46012;-53
2021/07/28 07:20:36;;;;;;;19.85;8.05;;;;;;;;;;143727;622;46022;-54
2021/07/28 07:23:02;;;;;;;19.35;9.05;;;;;;;;;;143726;589;46020;-53
2021/07/28 07:25:29;;;;;;;11.55;6.90;;;;;;;;;;143725;583;48010;-53
2021/07/28 07:27:56;;;;;;;12.48;7.07;;;;;;;;;;143730;588;46012;-54
2021/07/28 07:30:24;;;;;;;15.38;7.45;;;;;;;;;;143728;580;47020;-53
2021/07/28 07:35:35;;;;;;;12.25;7.30;;;;;;;;;;143730;574;46021;-53
2021/07/28 07:38:02;;;;;;;15.65;7.32;;;;;;;;;;143732;614;46020;-54
2021/07/28 07:40:29;;;;;;;13.30;6.20;;;;;;;;;;143729;606;46020;-53
2021/07/28 07:42:56;;;;;;;12.57;7.25;;;;;;;;;;143727;637;46021;-53
2021/07/28 07:45:23;;;;;;;10.40;7.37;;;;;;;;;;143727;569;46020;-53
2021/07/28 07:47:50;;;;;;;14.75;6.40;;;;;;;;;;143732;565;46012;-53
2021/07/28 07:50:17;;;;;;;13.18;9.52;;;;;;;;;;143726;565;47023;-53
2021/07/28 07:52:44;;;;;;;14.02;6.22;;;;;;;;;;143728;589;46020;-53
2021/07/28 07:55:11;;;;;;;12.32;7.82;;;;;;;;;;143729;605;46018;-54
2021/07/28 07:57:39;;;;;;;14.98;6.60;;;;;;;;;;143730;577;46012;-53
2021/07/28 08:00:07;;;;;;;12.88;6.72;;;;;;;;;;143729;639;46020;-52
2021/07/28 08:02:34;;;;;;;16.85;6.57;;;;;;;;;;143727;602;46020;-52
2021/07/28 08:05:00;;;;;;;12.65;6.62;;;;;;;;;;143728;569;46021;-52
2021/07/28 08:07:28;;;;;;;14.57;7.28;;;;;;;;;;143728;581;46020;-53
2021/07/28 08:09:54;;;;;;;9.55;6.47;;;;;;;;;;143729;585;46020;-53
2021/07/28 08:12:21;;;;;;;11.40;6.32;;;;;;;;;;143727;597;46010;-52
2021/07/28 08:14:48;;;;;;;11.60;6.62;;;;;;;;;;143726;581;46020;-53
2021/07/28 08:17:16;;;;;;;14.80;6.07;;;;;;;;;;143730;581;46020;-53
2021/07/28 08:19:43;;;;;;;8.73;6.75;;;;;;;;;;143718;597;51010;-53
2021/07/28 08:22:10;;;;;;;10.88;6.18;;;;;;;;;;143727;564;46010;-53
2021/07/28 08:24:36;;;;;;;9.45;5.82;;;;;;;;;;143727;569;46020;-53
2021/07/28 08:27:04;;;;;;;15.52;6.00;;;;;;;;;;143726;586;48021;-53
2021/07/28 08:29:31;;;;;;;14.00;6.43;;;;;;;;;;143728;574;46023;-53
2021/07/28 08:31:58;;;;;;;9.30;6.47;;;;;;;;;;143726;660;46020;-52
2021/07/28 08:34:24;;;;;;;9.60;5.85;;;;;;;;;;143729;622;46021;-54
2021/07/28 08:36:51;;;;;;;16.77;5.90;;;;;;;;;;143729;585;46012;-54
2021/07/28 08:39:19;;;;;;;13.80;7.05;;;;;;;;;;143728;621;46022;-53
2021/07/28 08:41:48;;;;;;;10.38;5.97;;;;;;;;;;143727;571;46021;-54
2021/07/28 08:44:20;;;;;;;10.63;6.10;;;;;;;;;;143726;609;46020;-54
2021/07/28 08:46:49;;;;;;;8.27;5.70;;;;;;;;;;143729;600;46020;-54
2021/07/28 08:49:17;;;;;;;9.55;6.45;;;;;;;;;;143729;599;46021;-54
2021/07/28 08:51:45;;;;;;;10.00;6.07;;;;;;;;;;143727;591;46010;-54
2021/07/28 08:54:12;;;;;;;8.77;5.82;;;;;;;;;;143728;612;46020;-54
2021/07/28 08:56:42;;;;;;;10.93;5.55;;;;;;;;;;143729;587;46013;-54
2021/07/28 08:59:28;;;;;;;9.90;5.68;;;;;;;;;;143723;567;50010;-54
2021/07/28 09:01:59;;;;;;;10.73;5.35;;;;;;;;;;143727;629;46020;-54
2021/07/28 09:04:28;;;;;;;12.70;5.78;;;;;;;;;;143727;615;46021;-54
2021/07/28 09:06:56;;;;;;;9.93;5.82;;;;;;;;;;143732;609;46020;-53
2021/07/28 09:09:23;;;;;;;12.90;6.32;;;;;;;;;;143728;613;46020;-54
2021/07/28 09:12:04;;;;;;;13.73;5.90;;;;;;;;;;143728;583;46010;-54
2021/07/28 09:14:35;;;;;;;10.45;6.10;;;;;;;;;;143730;564;46010;-54
2021/07/28 09:17:19;;;;;;;15.45;6.00;;;;;;;;;;143730;634;46020;-54
2021/07/28 09:19:48;;;;;;;10.82;6.18;;;;;;;;;;143728;588;47023;-54
2021/07/28 09:22:18;;;;;;;11.90;5.60;;;;;;;;;;143728;569;46020;-54
2021/07/28 09:24:50;;;;;;;10.45;5.80;;;;;;;;;;143725;661;46020;-54
2021/07/28 09:27:53;;;;;;;12.27;5.93;;;;;;;;;;143731;606;46021;-54
2021/07/28 09:30:46;;;;;;;13.45;5.87;;;;;;;;;;143729;594;46024;-54
2021/07/28 09:33:13;;;;;;;15.35;5.57;;;;;;;;;;143728;589;46010;-54
2021/07/28 09:36:20;;;;;;;8.27;4.95;;;;;;;;;;143730;590;46018;-54
2021/07/28 09:38:47;;;;;;;11.07;5.68;;;;;;;;;;143731;629;46012;-54
2021/07/28 09:41:28;;;;;;;8.38;5.43;;;;;;;;;;143729;585;46022;-54
2021/07/28 09:44:02;;;;;;;13.30;6.22;;;;;;;;;;143729;565;46010;-54
2021/07/28 09:46:39;;;;;;;16.80;5.85;;;;;;;;;;143728;572;46020;-54
2021/07/28 09:49:09;;;;;;;13.55;5.80;;;;;;;;;;143729;633;46021;-54
2021/07/28 09:51:41;;;;;;;19.60;5.68;;;;;;;;;;143729;573;47020;-54
2021/07/28 09:54:15;;;;;;;11.32;5.35;;;;;;;;;;143728;611;46010;-54
2021/07/28 09:56:53;;;;;;;13.98;6.25;;;;;;;;;;143730;610;46018;-54
2021/07/28 09:59:22;;;;;;;8.98;5.20;;;;;;;;;;143730;611;46020;-54
2021/07/28 10:01:49;;;;;;;11.52;6.05;;;;;;;;;;143730;587;46020;-54
2021/07/28 10:04:18;;;;;;;9.05;6.18;;;;;;;;;;143727;607;46021;-54
2021/07/28 10:06:48;;;;;;;10.60;5.57;;;;;;;;;;143728;637;46020;-54
2021/07/28 10:09:16;;;;;;;14.23;6.43;;;;;;;;;;143731;617;46020;-54
2021/07/28 10:11:48;;;;;;;10.35;5.90;;;;;;;;;;143727;577;47020;-55
2021/07/28 10:14:19;;;;;;;8.93;5.93;;;;;;;;;;143727;650;46014;-54
2021/07/28 10:16:47;;;;;;;11.38;6.70;;;;;;;;;;143729;605;46020;-54
2021/07/28 10:19:16;;;;;;;12.10;6.30;;;;;;;;;;143732;564;46021;-54
2021/07/28 10:21:43;;;;;;;12.50;6.75;;;;;;;;;;143731;650;46020;-54
2021/07/28 10:24:11;;;;;;;17.73;5.85;;;;;;;;;;143728;614;46010;-54
2021/07/28 10:26:51;;;;;;;16.90;6.22;;;;;;;;;;143728;668;46017;-54
2021/07/28 10:29:18;;;;;;;12.90;5.53;;;;;;;;;;143732;645;46020;-54
2021/07/28 10:31:50;;;;;;;9.32;5.05;;;;;;;;;;143730;642;46020;-54
2021/07/28 10:34:42;;;;;;;8.43;5.60;;;;;;;;;;143729;594;46010;-54
2021/07/28 10:37:09;;;;;;;11.10;6.15;;;;;;;;;;143727;617;46020;-54
2021/07/28 10:39:45;;;;;;;19.77;6.82;;;;;;;;;;143733;569;46020;-54
2021/07/28 10:42:49;;;;;;;13.98;6.87;;;;;;;;;;143731;576;46020;-54
2021/07/28 10:45:20;;;;;;;16.05;7.28;;;;;;;;;;143728;608;46020;-54
2021/07/28 10:47:51;;;;;;;19.08;8.32;;;;;;;;;;143729;566;46021;-55
2021/07/28 10:50:43;;;;;;;18.65;7.93;;;;;;;;;;143732;646;46020;-54
2021/07/28 10:53:10;;;;;;;20.15;7.95;;;;;;;;;;143726;591;47014;-54
2021/07/28 10:55:38;;;;;;;13.85;6.60;;;;;;;;;;143729;586;46010;-54
2021/07/28 10:58:25;;;;;;;11.82;5.57;;;;;;;;;;143731;564;46010;-55
2021/07/28 11:00:53;;;;;;;15.18;6.03;;;;;;;;;;143730;570;46012;-54
2021/07/28 11:03:20;;;;;;;9.52;5.35;;;;;;;;;;143730;570;46021;-54
2021/07/28 11:05:53;;;;;;;9.35;5.85;;;;;;;;;;143728;569;46010;-54
2021/07/28 11:08:20;;;;;;;;;;;;;;;;;;143734;955;46020;-54
2021/07/28 11:10:55;;;;;;;21.15;6.53;;;;;;;;;;143739;576;46021;-54
2021/07/28 11:13:27;;;;;;;14.25;5.53;;;;;;;;;;143731;634;46020;-54
2021/07/28 11:16:05;;;;;;;12.85;6.15;;;;;;;;;;143727;570;46020;-55
2021/07/28 11:18:40;;;;;;;19.67;7.60;;;;;;;;;;143731;569;46011;-55
2021/07/28 11:21:38;;;;;;;20.85;7.57;;;;;;;;;;143734;583;45028;-55
2021/07/28 11:24:06;;;;;;;13.85;6.70;;;;;;;;;;143731;567;46021;-54
2021/07/28 11:26:45;;;;;;;9.70;5.62;;;;;;;;;;143728;613;46011;-54
2021/07/28 11:29:18;;;;;;;14.35;5.80;;;;;;;;;;143726;596;48012;-54
2021/07/28 11:31:49;;;;;;;9.85;5.82;;;;;;;;;;143730;596;47011;-54
2021/07/28 11:34:21;;;;;;;21.33;5.68;;;;;;;;;;143730;565;46020;-54
2021/07/28 11:37:04;;;;;;;15.63;6.83;;;;;;;;;;143728;570;46010;-54
2021/07/28 11:39:33;;;;;;;12.13;6.45;;;;;;;;;;143728;609;46020;-54
2021/07/28 11:42:06;;;;;;;12.15;6.40;;;;;;;;;;143731;565;46021;-54
2021/07/28 11:44:46;;;;;;;17.90;6.33;;;;;;;;;;143730;593;46020;-54
2021/07/28 11:47:21;;;;;;;11.70;6.00;;;;;;;;;;143727;566;46010;-54
2021/07/28 11:50:06;;;;;;;13.80;5.43;;;;;;;;;;143730;577;46018;-54
2021/07/28 11:52:46;;;;;;;13.07;5.10;;;;;;;;;;143732;597;46012;-54
2021/07/28 11:55:25;;;;;;;11.68;6.00;;;;;;;;;;143730;584;46021;-55
2021/07/28 11:57:52;;;;;;;14.90;5.70;;;;;;;;;;143727;567;46917;-55
2021/07/28 12:00:47;;;;;;;10.68;5.40;;;;;;;;;;143728;577;46020;-55
2021/07/28 12:03:31;;;;;;;10.13;5.25;;;;;;;;;;143732;608;46012;-54
2021/07/28 12:06:08;;;;;;;9.98;5.50;;;;;;;;;;143730;569;46020;-54
2021/07/28 12:08:36;;;;;;;14.57;5.32;;;;;;;;;;143729;609;46011;-54
2021/07/28 12:11:08;;;;;;;12.35;5.55;;;;;;;;;;143727;604;46021;-55
2021/07/28 12:13:48;;;;;;;10.57;5.97;;;;;;;;;;143733;750;46020;-54
2021/07/28 12:16:15;;;;;;;12.90;6.00;;;;;;;;;;143730;577;46021;-55
2021/07/28 12:18:46;;;;;;;13.50;6.18;;;;;;;;;;143728;652;46021;-55
2021/07/28 12:21:14;;;;;;;11.60;6.03;;;;;;;;;;143728;592;46018;-55
2021/07/28 12:23:52;;;;;;;17.23;6.05;;;;;;;;;;143733;567;46013;-55
2021/07/28 12:26:44;;;;;;;9.27;5.95;;;;;;;;;;143729;581;47020;-55
2021/07/28 12:29:11;;;;;;;10.45;4.97;;;;;;;;;;143728;621;46010;-55
2021/07/28 12:31:38;;;;;;;10.73;5.32;;;;;;;;;;143729;618;46020;-55
2021/07/28 12:34:21;;;;;;;8.82;5.37;;;;;;;;;;143731;578;46012;-55
2021/07/28 12:36:48;;;;;;;12.73;6.35;;;;;;;;;;143730;583;46020;-55
2021/07/28 12:39:15;;;;;;;12.00;6.07;;;;;;;;;;143728;565;46011;-55
2021/07/28 12:41:42;;;;;;;17.08;6.65;;;;;;;;;;143729;621;46020;-54
2021/07/28 12:44:09;;;;;;;12.70;5.62;;;;;;;;;;143733;569;46012;-54
2021/07/28 12:46:36;;;;;;;10.15;5.55;;;;;;;;;;143731;563;46021;-54
2021/07/28 12:49:03;;;;;;;15.00;6.30;;;;;;;;;;143729;585;46021;-54
2021/07/28 12:51:30;;;;;;;11.38;5.62;;;;;;;;;;143728;628;46018;-54
2021/07/28 12:53:58;;;;;;;10.27;5.90;;;;;;;;;;143731;566;46026;-54
2021/07/28 12:56:25;;;;;;;16.48;6.50;;;;;;;;;;143729;617;46020;-54
2021/07/28 12:58:52;;;;;;;13.73;5.40;;;;;;;;;;143728;564;46020;-54
2021/07/28 13:01:18;;;;;;;10.10;5.55;;;;;;;;;;143729;637;46020;-54
2021/07/28 13:03:53;;;;;;;11.05;6.35;;;;;;;;;;143730;566;46012;-54
2021/07/28 13:06:23;;;;;;;12.13;5.95;;;;;;;;;;143730;641;46020;-54
2021/07/28 13:08:50;;;;;;;9.10;5.80;;;;;;;;;;143728;587;46020;-55
2021/07/28 13:11:17;;;;;;;10.52;4.57;;;;;;;;;;143728;660;46020;-54
2021/07/28 13:13:44;;;;;;;10.10;5.62;;;;;;;;;;143731;565;46020;-54
2021/07/28 13:16:12;;;;;;;13.02;6.47;;;;;;;;;;143729;589;47021;-55
2021/07/28 13:18:39;;;;;;;12.65;5.57;;;;;;;;;;143728;579;46020;-55
2021/07/28 13:21:07;;;;;;;14.35;5.47;;;;;;;;;;143729;577;46018;-54
2021/07/28 13:23:34;;;;;;;9.00;5.68;;;;;;;;;;143731;638;46021;-54
2021/07/28 13:26:01;;;;;;;9.25;5.37;;;;;;;;;;143730;622;46023;-55
2021/07/28 13:28:28;;;;;;;9.00;5.30;;;;;;;;;;143728;569;46020;-54
2021/07/28 13:30:55;;;;;;;12.02;5.43;;;;;;;;;;143730;564;46019;-54
2021/07/28 13:33:22;;;;;;;10.07;5.45;;;;;;;;;;143734;583;46012;-54
2021/07/28 13:35:49;;;;;;;21.15;5.50;;;;;;;;;;143725;591;47022;-54
2021/07/28 13:38:16;;;;;;;8.93;5.40;;;;;;;;;;143728;650;46011;-54
2021/07/28 13:40:43;;;;;;;9.38;5.80;;;;;;;;;;143729;571;46020;-54
2021/07/28 13:43:12;;;;;;;11.35;5.12;;;;;;;;;;143734;573;46012;-54
2021/07/28 13:45:41;;;;;;;11.27;5.10;;;;;;;;;;143730;613;46021;-54
2021/07/28 13:48:09;;;;;;;9.20;4.90;;;;;;;;;;143728;590;46021;-55
2021/07/28 13:50:36;;;;;;;13.60;6.15;;;;;;;;;;143729;591;46018;-54
2021/07/28 13:53:03;;;;;;;12.18;5.53;;;;;;;;;;143732;569;46013;-54
2021/07/28 13:55:30;;;;;;;13.00;5.82;;;;;;;;;;143727;684;46023;-54
2021/07/28 13:57:58;;;;;;;14.52;5.75;;;;;;;;;;143726;649;47010;-54
2021/07/28 14:00:25;;;;;;;12.45;5.97;;;;;;;;;;143726;566;46020;-55
2021/07/28 14:02:52;;;;;;;20.52;5.95;;;;;;;;;;143730;573;46021;-55
2021/07/28 14:05:18;;;;;;;13.13;6.93;;;;;;;;;;143728;559;46020;-54
2021/07/28 14:07:45;;;;;;;21.70;8.23;;;;;;;;;;143727;577;46022;-54
2021/07/28 14:10:12;;;;;;;14.52;5.72;;;;;;;;;;143728;614;46021;-54
2021/07/28 14:12:41;;;;;;;7.18;5.32;;;;;;;;;;143728;573;46020;-55
2021/07/28 14:15:09;;;;;;;7.57;4.87;;;;;;;;;;143726;593;47020;-54
2021/07/28 14:17:37;;;;;;;8.93;4.85;;;;;;;;;;143726;660;46021;-55
2021/07/28 14:20:04;;;;;;;12.63;5.22;;;;;;;;;;143728;594;46020;-55
2021/07/28 14:22:33;;;;;;;8.90;4.95;;;;;;;;;;143728;589;46013;-55
2021/07/28 14:25:01;;;;;;;10.57;5.00;;;;;;;;;;143729;591;46021;-55
2021/07/28 14:27:28;;;;;;;9.68;5.12;;;;;;;;;;143726;569;46020;-55
2021/07/28 14:29:54;;;;;;;12.60;5.45;;;;;;;;;;143728;631;46020;-55
2021/07/28 14:32:21;;;;;;;8.85;5.20;;;;;;;;;;143731;582;46009;-54
2021/07/28 14:34:48;;;;;;;7.12;5.15;;;;;;;;;;143731;586;46010;-55
2021/07/28 14:37:15;;;;;;;9.70;4.82;;;;;;;;;;143726;621;46010;-54
2021/07/28 14:39:43;;;;;;;10.80;4.90;;;;;;;;;;143726;661;46021;-54
2021/07/28 14:42:11;;;;;;;11.18;5.62;;;;;;;;;;143730;610;46012;-54
2021/07/28 14:44:38;;;;;;;12.93;5.37;;;;;;;;;;143727;627;47020;-55
2021/07/28 14:47:04;;;;;;;10.35;5.25;;;;;;;;;;143726;580;46010;-54
2021/07/28 14:49:31;;;;;;;10.07;5.03;;;;;;;;;;143726;631;46020;-54